createdAt,value
2018-02-09T00:00:09.602Z,74.87
2018-02-09T00:01:18.526Z,75.34
2018-02-09T00:02:27.346Z,74.68
2018-02-09T00:03:36.170Z,74.58
2018-02-09T00:04:44.994Z,74.96
2018-02-09T00:05:53.820Z,74.77
2018-02-09T00:07:02.643Z,74.77
2018-02-09T00:08:11.464Z,75.15
2018-02-09T00:09:20.287Z,74.77
2018-02-09T00:10:29.110Z,74.87
2018-02-09T00:11:37.933Z,75.15
2018-02-09T00:12:46.903Z,74.87
2018-02-09T00:13:55.724Z,74.77
2018-02-09T00:15:04.549Z,74.87
2018-02-09T00:16:13.374Z,75.05
2018-02-09T00:17:22.192Z,74.68
2018-02-09T00:18:31.390Z,74.49
2018-02-09T00:19:40.224Z,74.58
2018-02-09T00:20:49.035Z,74.49
2018-02-09T00:21:57.860Z,74.4
2018-02-09T00:23:06.966Z,74.49
2018-02-09T00:24:15.941Z,74.77
2018-02-09T00:25:24.764Z,74.3
2018-02-09T00:26:33.587Z,74.87
2018-02-09T00:27:42.410Z,74.68
2018-02-09T00:29:23.397Z,74.21
2018-02-09T00:30:32.215Z,74.49
2018-02-09T00:31:41.036Z,74.68
2018-02-09T00:32:49.858Z,74.3
2018-02-09T00:33:58.685Z,74.11
2018-02-09T00:35:07.603Z,74.87
2018-02-09T00:36:16.423Z,74.21
2018-02-09T00:37:25.246Z,74.3
2018-02-09T00:38:34.067Z,74.77
2018-02-09T00:39:42.890Z,74.68
2018-02-09T00:40:51.715Z,74.21
2018-02-09T00:42:00.543Z,74.02
2018-02-09T00:43:09.359Z,74.21
2018-02-09T00:44:18.184Z,74.49
2018-02-09T00:45:27.008Z,74.02
2018-02-09T00:46:35.930Z,74.4
2018-02-09T00:47:44.751Z,74.4
2018-02-09T00:48:53.569Z,74.3
2018-02-09T00:50:02.667Z,74.3
2018-02-09T00:51:11.489Z,74.58
2018-02-09T00:52:20.314Z,73.64
2018-02-09T00:53:29.134Z,73.74
2018-02-09T00:54:37.955Z,73.64
2018-02-09T00:55:47.111Z,73.74
2018-02-09T00:56:55.932Z,73.36
2018-02-09T00:58:04.755Z,73.36
2018-02-09T00:59:13.578Z,73.74
2018-02-09T01:00:22.397Z,73.74
2018-02-09T01:01:31.220Z,73.74
2018-02-09T01:02:40.043Z,73.74
2018-02-09T01:03:48.918Z,73.83
2018-02-09T01:04:57.737Z,73.74
2018-02-09T01:06:06.561Z,73.83
2018-02-09T01:07:15.383Z,73.26
2018-02-09T01:08:24.206Z,73.64
2018-02-09T01:09:33.128Z,73.64
2018-02-09T01:10:41.950Z,74.02
2018-02-09T01:11:50.777Z,73.55
2018-02-09T01:12:59.594Z,73.17
2018-02-09T01:14:08.687Z,73.74
2018-02-09T01:15:17.507Z,73.74
2018-02-09T01:16:26.331Z,73.93
2018-02-09T01:17:35.153Z,73.83
2018-02-09T01:18:43.974Z,73.83
2018-02-09T01:19:52.797Z,73.83
2018-02-09T01:21:01.718Z,73.93
2018-02-09T01:22:10.537Z,74.21
2018-02-09T01:23:19.359Z,73.26
2018-02-09T01:24:28.182Z,73.74
2018-02-09T01:25:37.012Z,73.74
2018-02-09T01:26:45.882Z,73.64
2018-02-09T01:27:54.705Z,73.74
2018-02-09T01:29:03.526Z,73.74
2018-02-09T01:30:12.620Z,73.83
2018-02-09T01:31:21.441Z,73.74
2018-02-09T01:32:30.364Z,73.74
2018-02-09T01:33:39.460Z,73.83
2018-02-09T01:34:48.281Z,74.11
2018-02-09T01:35:57.103Z,74.3
2018-02-09T01:37:05.926Z,74.4
2018-02-09T01:38:14.898Z,74.4
2018-02-09T01:39:23.721Z,73.55
2018-02-09T01:40:32.544Z,73.64
2018-02-09T01:41:41.638Z,74.02
2018-02-09T01:42:50.461Z,73.74
2018-02-09T01:43:59.286Z,73.74
2018-02-09T01:45:08.377Z,73.74
2018-02-09T01:46:17.198Z,73.74
2018-02-09T01:47:26.025Z,73.74
2018-02-09T01:48:34.847Z,74.11
2018-02-09T01:49:43.918Z,74.02
2018-02-09T01:50:52.739Z,73.93
2018-02-09T01:52:01.560Z,74.3
2018-02-09T01:53:10.383Z,73.64
2018-02-09T01:54:19.203Z,74.11
2018-02-09T01:55:28.174Z,74.02
2018-02-09T01:56:36.998Z,73.83
2018-02-09T01:57:45.822Z,74.02
2018-02-09T01:58:54.643Z,73.83
2018-02-09T02:00:03.461Z,74.02
2018-02-09T02:01:12.585Z,73.74
2018-02-09T02:02:53.466Z,74.02
2018-02-09T02:04:02.285Z,74.11
2018-02-09T02:05:11.108Z,74.3
2018-02-09T02:06:19.937Z,73.45
2018-02-09T02:07:28.757Z,73.64
2018-02-09T02:08:37.580Z,73.74
2018-02-09T02:09:46.401Z,73.74
2018-02-09T02:10:55.224Z,73.26
2018-02-09T02:12:04.346Z,73.45
2018-02-09T02:13:13.169Z,73.74
2018-02-09T02:14:21.988Z,73.64
2018-02-09T02:15:30.859Z,73.74
2018-02-09T02:16:39.682Z,73.74
2018-02-09T02:17:48.605Z,73.45
2018-02-09T02:18:57.427Z,73.45
2018-02-09T02:20:06.247Z,73.55
2018-02-09T02:21:15.068Z,73.26
2018-02-09T02:22:23.893Z,73.36
2018-02-09T02:23:32.814Z,72.79
2018-02-09T02:24:41.637Z,72.79
2018-02-09T02:25:50.458Z,72.22
2018-02-09T02:26:59.279Z,71.84
2018-02-09T02:28:08.102Z,72.22
2018-02-09T02:29:17.224Z,72.41
2018-02-09T02:30:26.048Z,72.22
2018-02-09T02:31:34.869Z,71.56
2018-02-09T02:32:43.691Z,71.75
2018-02-09T02:33:52.514Z,71.66
2018-02-09T02:35:01.635Z,71.56
2018-02-09T02:36:10.739Z,71.66
2018-02-09T02:37:19.558Z,71.47
2018-02-09T02:38:28.380Z,71.56
2018-02-09T02:39:37.203Z,71.56
2018-02-09T02:40:46.177Z,71.66
2018-02-09T02:41:55.000Z,71.56
2018-02-09T02:43:04.094Z,71.56
2018-02-09T02:44:13.191Z,71.37
2018-02-09T02:45:22.016Z,71.75
2018-02-09T02:46:30.983Z,71.84
2018-02-09T02:47:39.805Z,71.56
2018-02-09T02:48:48.632Z,71.47
2018-02-09T02:49:57.728Z,71.66
2018-02-09T02:51:06.551Z,71.19
2018-02-09T02:52:15.372Z,71
2018-02-09T02:53:24.197Z,71.09
2018-02-09T02:54:33.015Z,71.47
2018-02-09T02:55:41.839Z,71.28
2018-02-09T02:56:50.661Z,71.19
2018-02-09T02:57:59.583Z,71.19
2018-02-09T02:59:08.678Z,71.09
2018-02-09T03:00:17.501Z,71.28
2018-02-09T03:01:26.324Z,71.37
2018-02-09T03:02:35.146Z,71.19
2018-02-09T03:03:44.068Z,71.37
2018-02-09T03:04:52.889Z,70.62
2018-02-09T03:06:01.714Z,71.19
2018-02-09T03:07:10.531Z,71.19
2018-02-09T03:08:19.353Z,70.81
2018-02-09T03:09:28.275Z,70.72
2018-02-09T03:10:37.098Z,70.43
2018-02-09T03:11:45.919Z,70.34
2018-02-09T03:12:54.741Z,70.53
2018-02-09T03:14:03.562Z,70.43
2018-02-09T03:15:12.435Z,70.58
2018-02-09T03:16:21.260Z,70.34
2018-02-09T03:17:30.357Z,70.15
2018-02-09T03:18:39.180Z,70.15
2018-02-09T03:19:48.002Z,70.05
2018-02-09T03:20:56.924Z,69.64
2018-02-09T03:22:05.748Z,70.05
2018-02-09T03:23:14.843Z,70.53
2018-02-09T03:24:23.663Z,69.96
2018-02-09T03:25:32.490Z,70.05
2018-02-09T03:26:41.411Z,70.15
2018-02-09T03:27:50.231Z,69.86
2018-02-09T03:28:59.052Z,70.05
2018-02-09T03:30:07.877Z,69.86
2018-02-09T03:31:16.700Z,69.96
2018-02-09T03:32:25.822Z,69.49
2018-02-09T03:33:34.642Z,69.49
2018-02-09T03:34:43.464Z,69.58
2018-02-09T03:35:52.285Z,69.77
2018-02-09T03:37:01.106Z,70.11
2018-02-09T03:38:10.029Z,69.45
2018-02-09T03:39:18.851Z,69.92
2018-02-09T03:40:27.671Z,69.83
2018-02-09T03:41:36.493Z,69.92
2018-02-09T03:42:45.317Z,69.64
2018-02-09T03:43:54.388Z,69.77
2018-02-09T03:45:03.210Z,69.58
2018-02-09T03:46:12.030Z,69.58
2018-02-09T03:47:21.122Z,69.54
2018-02-09T03:48:29.942Z,69.73
2018-02-09T03:49:38.764Z,69.45
2018-02-09T03:50:47.586Z,69.86
2018-02-09T03:51:56.956Z,69.45
2018-02-09T03:53:08.484Z,70.24
2018-02-09T03:54:17.304Z,69.58
2018-02-09T03:55:26.177Z,69.86
2018-02-09T03:56:34.999Z,69.67
2018-02-09T03:57:43.824Z,69.83
2018-02-09T03:58:52.642Z,69.58
2018-02-09T04:00:01.461Z,69.26
2018-02-09T04:01:10.560Z,69.67
2018-02-09T04:02:19.384Z,69.2
2018-02-09T04:03:28.204Z,69.83
2018-02-09T04:04:37.028Z,69.35
2018-02-09T04:05:45.849Z,69.35
2018-02-09T04:06:54.671Z,69.45
2018-02-09T04:08:03.492Z,69.45
2018-02-09T04:09:12.314Z,69.35
2018-02-09T04:10:21.135Z,69.26
2018-02-09T04:11:29.953Z,69.54
2018-02-09T04:12:39.049Z,69.35
2018-02-09T04:13:47.873Z,68.98
2018-02-09T04:14:56.692Z,68.98
2018-02-09T04:16:05.800Z,69.07
2018-02-09T04:17:14.894Z,69.07
2018-02-09T04:18:23.816Z,69.26
2018-02-09T04:19:32.637Z,68.98
2018-02-09T04:20:41.732Z,69.17
2018-02-09T04:21:50.553Z,69.26
2018-02-09T04:22:59.375Z,68.98
2018-02-09T04:24:08.502Z,68.88
2018-02-09T04:25:17.323Z,69.26
2018-02-09T04:26:26.143Z,69.26
2018-02-09T04:27:34.965Z,69.17
2018-02-09T04:28:43.787Z,68.98
2018-02-09T04:29:52.860Z,68.88
2018-02-09T04:31:01.682Z,69.17
2018-02-09T04:32:10.773Z,69.07
2018-02-09T04:33:19.595Z,68.6
2018-02-09T04:34:28.417Z,69.07
2018-02-09T04:35:37.239Z,68.7
2018-02-09T04:36:46.061Z,68.6
2018-02-09T04:37:54.882Z,68.79
2018-02-09T04:39:03.976Z,68.32
2018-02-09T04:40:12.799Z,68.88
2018-02-09T04:41:21.622Z,68.88
2018-02-09T04:42:30.444Z,68.98
2018-02-09T04:43:39.265Z,68.88
2018-02-09T04:44:48.087Z,68.41
2018-02-09T04:45:56.909Z,68.32
2018-02-09T04:47:05.878Z,68.41
2018-02-09T04:48:14.700Z,68.41
2018-02-09T04:49:23.522Z,68.32
2018-02-09T04:50:32.343Z,68.6
2018-02-09T04:51:41.163Z,68.32
2018-02-09T04:52:50.357Z,68.51
2018-02-09T04:53:59.178Z,68.13
2018-02-09T04:55:07.999Z,68.13
2018-02-09T04:56:16.820Z,68.51
2018-02-09T04:57:25.639Z,67.94
2018-02-09T04:58:34.711Z,68.04
2018-02-09T04:59:43.530Z,68.51
2018-02-09T05:00:52.350Z,68.13
2018-02-09T05:02:01.170Z,68.23
2018-02-09T05:03:09.990Z,68.13
2018-02-09T05:04:19.185Z,68.04
2018-02-09T05:05:28.006Z,67.94
2018-02-09T05:06:36.828Z,68.04
2018-02-09T05:07:45.647Z,67.66
2018-02-09T05:08:54.471Z,67.57
2018-02-09T05:10:03.392Z,67.57
2018-02-09T05:11:12.214Z,67.57
2018-02-09T05:12:21.037Z,67.85
2018-02-09T05:13:29.858Z,67.75
2018-02-09T05:14:38.679Z,67.75
2018-02-09T05:15:47.801Z,67.66
2018-02-09T05:16:56.620Z,67.66
2018-02-09T05:18:05.448Z,67.47
2018-02-09T05:19:14.262Z,68.13
2018-02-09T05:20:23.082Z,68.04
2018-02-09T05:21:32.257Z,68.13
2018-02-09T05:22:41.073Z,67.38
2018-02-09T05:23:49.895Z,67.47
2018-02-09T05:24:58.717Z,67.57
2018-02-09T05:26:07.540Z,67.57
2018-02-09T05:27:16.460Z,67
2018-02-09T05:28:25.277Z,67.19
2018-02-09T05:29:34.097Z,67.47
2018-02-09T05:30:42.918Z,67.09
2018-02-09T05:31:52.013Z,67.19
2018-02-09T05:33:01.135Z,67.28
2018-02-09T05:34:09.989Z,67.09
2018-02-09T05:35:18.775Z,67.09
2018-02-09T05:36:27.596Z,67.19
2018-02-09T05:37:36.417Z,66.9
2018-02-09T05:38:45.390Z,67.09
2018-02-09T05:39:54.207Z,66.62
2018-02-09T05:41:03.029Z,67.19
2018-02-09T05:42:12.128Z,67
2018-02-09T05:43:20.949Z,67.09
2018-02-09T05:44:30.070Z,67
2018-02-09T05:45:38.892Z,67.09
2018-02-09T05:46:47.711Z,66.71
2018-02-09T05:47:56.532Z,66.81
2018-02-09T05:49:05.629Z,66.52
2018-02-09T05:50:14.499Z,66.52
2018-02-09T05:51:23.323Z,66.71
2018-02-09T05:52:32.146Z,66.81
2018-02-09T05:53:40.969Z,66.71
2018-02-09T05:54:49.791Z,66.52
2018-02-09T05:55:58.714Z,66.71
2018-02-09T05:57:07.534Z,67.09
2018-02-09T05:58:16.404Z,67
2018-02-09T05:59:25.289Z,66.9
2018-02-09T06:00:34.230Z,67.09
2018-02-09T06:01:43.204Z,66.9
2018-02-09T06:02:52.027Z,67.09
2018-02-09T06:04:00.846Z,66.43
2018-02-09T06:05:09.676Z,66.71
2018-02-09T06:06:18.777Z,66.43
2018-02-09T06:07:27.815Z,66.24
2018-02-09T06:08:36.640Z,66.71
2018-02-09T06:09:45.736Z,66.43
2018-02-09T06:10:54.556Z,66.34
2018-02-09T06:12:03.429Z,66.43
2018-02-09T06:13:12.272Z,66.81
2018-02-09T06:14:21.098Z,66.52
2018-02-09T06:15:29.920Z,66.34
2018-02-09T06:16:38.741Z,66.24
2018-02-09T06:17:47.565Z,66.24
2018-02-09T06:18:56.959Z,66.62
2018-02-09T06:20:05.782Z,66.34
2018-02-09T06:21:14.605Z,66.34
2018-02-09T06:22:23.711Z,66.43
2018-02-09T06:23:32.533Z,66.62
2018-02-09T06:24:41.605Z,66.62
2018-02-09T06:25:50.381Z,66.81
2018-02-09T06:26:59.204Z,66.71
2018-02-09T06:28:08.027Z,67
2018-02-09T06:29:17.121Z,67.09
2018-02-09T06:30:25.939Z,67.09
2018-02-09T06:31:35.658Z,67.19
2018-02-09T06:32:44.515Z,67.19
2018-02-09T06:33:53.942Z,67.09
2018-02-09T06:35:02.768Z,67.75
2018-02-09T06:36:11.593Z,67.38
2018-02-09T06:37:20.413Z,67.09
2018-02-09T06:38:29.236Z,67.38
2018-02-09T06:39:38.057Z,67.57
2018-02-09T06:40:46.881Z,67.75
2018-02-09T06:41:55.855Z,67.85
2018-02-09T06:43:04.680Z,67.66
2018-02-09T06:44:13.504Z,67.19
2018-02-09T06:45:22.330Z,67.47
2018-02-09T06:46:31.161Z,67.47
2018-02-09T06:47:40.144Z,66.9
2018-02-09T06:48:48.972Z,67.19
2018-02-09T06:49:57.792Z,67.28
2018-02-09T06:51:06.615Z,67.57
2018-02-09T06:52:15.439Z,67.57
2018-02-09T06:53:24.563Z,67.75
2018-02-09T06:54:33.386Z,67
2018-02-09T06:55:42.206Z,67.09
2018-02-09T06:56:51.031Z,67.38
2018-02-09T06:57:59.855Z,67
2018-02-09T06:59:08.878Z,67
2018-02-09T07:00:17.701Z,67.28
2018-02-09T07:01:26.563Z,67.19
2018-02-09T07:02:35.622Z,67.57
2018-02-09T07:03:44.719Z,67.47
2018-02-09T07:04:53.589Z,67.57
2018-02-09T07:06:02.415Z,68.13
2018-02-09T07:07:11.232Z,67.85
2018-02-09T07:08:20.334Z,67.94
2018-02-09T07:09:29.155Z,67.75
2018-02-09T07:10:38.124Z,67.47
2018-02-09T07:11:46.945Z,66.9
2018-02-09T07:12:55.770Z,68.13
2018-02-09T07:14:04.594Z,67.94
2018-02-09T07:15:13.420Z,68.13
2018-02-09T07:16:22.242Z,68.04
2018-02-09T07:17:31.063Z,68.13
2018-02-09T07:18:39.883Z,67.66
2018-02-09T07:19:48.705Z,67.57
2018-02-09T07:20:57.531Z,67.75
2018-02-09T07:22:06.602Z,67.38
2018-02-09T07:23:15.424Z,67.19
2018-02-09T07:24:24.245Z,67.47
2018-02-09T07:25:33.070Z,67.75
2018-02-09T07:26:41.893Z,67.47
2018-02-09T07:27:50.868Z,67.38
2018-02-09T07:28:59.689Z,67.66
2018-02-09T07:30:08.511Z,67.28
2018-02-09T07:31:17.333Z,67
2018-02-09T07:32:26.156Z,67.47
2018-02-09T07:33:35.229Z,67.19
2018-02-09T07:34:44.051Z,67.28
2018-02-09T07:35:52.872Z,67
2018-02-09T07:37:01.695Z,67.22
2018-02-09T07:38:10.519Z,67.5
2018-02-09T07:39:19.441Z,67.13
2018-02-09T07:40:28.262Z,67.5
2018-02-09T07:41:37.085Z,67.03
2018-02-09T07:42:45.905Z,67.88
2018-02-09T07:43:54.730Z,67.41
2018-02-09T07:45:03.655Z,67.69
2018-02-09T07:46:12.479Z,68.16
2018-02-09T07:47:21.582Z,68.26
2018-02-09T07:48:30.405Z,69.11
2018-02-09T07:49:39.226Z,69.01
2018-02-09T07:50:48.200Z,68.73
2018-02-09T07:51:57.295Z,69.01
2018-02-09T07:53:06.115Z,68.63
2018-02-09T07:54:14.943Z,68.63
2018-02-09T07:55:23.765Z,68.63
2018-02-09T07:56:32.889Z,69.3
2018-02-09T07:57:41.711Z,68.82
2018-02-09T07:58:50.537Z,69.11
2018-02-09T07:59:59.357Z,68.82
2018-02-09T08:01:08.182Z,68.73
2018-02-09T08:02:17.208Z,68.35
2018-02-09T08:03:26.035Z,68.92
2018-02-09T08:04:34.859Z,68.82
2018-02-09T08:05:43.682Z,68.92
2018-02-09T08:06:52.504Z,68.73
2018-02-09T08:08:01.328Z,68.92
2018-02-09T08:09:10.151Z,68.73
2018-02-09T08:10:18.973Z,68.92
2018-02-09T08:11:28.073Z,68.44
2018-02-09T08:12:36.896Z,69.3
2018-02-09T08:13:46.019Z,69.01
2018-02-09T08:14:54.840Z,68.92
2018-02-09T08:16:03.664Z,69.11
2018-02-09T08:17:12.536Z,69.11
2018-02-09T08:18:21.309Z,69.39
2018-02-09T08:19:30.231Z,68.82
2018-02-09T08:20:39.059Z,69.01
2018-02-09T08:21:47.882Z,69.67
2018-02-09T08:22:56.705Z,69.67
2018-02-09T08:24:05.531Z,69.39
2018-02-09T08:25:14.725Z,69.67
2018-02-09T08:26:23.549Z,69.49
2018-02-09T08:27:32.371Z,69.3
2018-02-09T08:28:41.192Z,69.77
2018-02-09T08:29:50.016Z,69.49
2018-02-09T08:30:58.939Z,69.96
2018-02-09T08:32:07.763Z,69.86
2018-02-09T08:33:16.645Z,70.24
2018-02-09T08:34:25.412Z,69.86
2018-02-09T08:35:34.505Z,70.62
2018-02-09T08:36:43.478Z,70.53
2018-02-09T08:37:52.299Z,70.43
2018-02-09T08:39:01.125Z,70.34
2018-02-09T08:40:09.946Z,70.34
2018-02-09T08:41:18.770Z,70.24
2018-02-09T08:42:28.145Z,70.34
2018-02-09T08:43:36.990Z,70.15
2018-02-09T08:44:45.793Z,70.15
2018-02-09T08:45:54.616Z,70.34
2018-02-09T08:47:03.445Z,69.96
2018-02-09T08:48:12.513Z,71.19
2018-02-09T08:49:21.609Z,70.9
2018-02-09T08:50:30.434Z,70.72
2018-02-09T08:51:39.309Z,70.53
2018-02-09T08:52:48.407Z,71
2018-02-09T08:53:57.481Z,70.72
2018-02-09T08:55:06.305Z,70.62
2018-02-09T08:56:15.127Z,70.24
2018-02-09T08:57:23.952Z,71.47
2018-02-09T08:58:32.776Z,70.72
2018-02-09T08:59:41.699Z,71.28
2018-02-09T09:00:50.520Z,71.19
2018-02-09T09:01:59.342Z,71.37
2018-02-09T09:03:08.172Z,71.28
2018-02-09T09:04:16.990Z,71.56
2018-02-09T09:05:26.088Z,71.56
2018-02-09T09:06:34.911Z,71.84
2018-02-09T09:07:43.734Z,71.66
2018-02-09T09:08:52.557Z,71.56
2018-02-09T09:10:01.382Z,72.22
2018-02-09T09:11:10.208Z,71.75
2018-02-09T09:12:19.305Z,71.66
2018-02-09T09:13:28.125Z,71.66
2018-02-09T09:14:36.948Z,72.83
2018-02-09T09:15:45.773Z,72.36
2018-02-09T09:16:54.701Z,72.07
2018-02-09T09:18:03.520Z,72.41
2018-02-09T09:19:12.345Z,72.55
2018-02-09T09:20:21.170Z,72.36
2018-02-09T09:21:29.994Z,73.02
2018-02-09T09:22:38.820Z,73.11
2018-02-09T09:23:47.644Z,72.83
2018-02-09T09:24:56.467Z,73.11
2018-02-09T09:26:05.291Z,73.11
2018-02-09T09:27:14.114Z,73.11
2018-02-09T09:28:22.990Z,72.92
2018-02-09T09:29:31.815Z,73.11
2018-02-09T09:30:40.913Z,73.39
2018-02-09T09:31:49.736Z,73.3
2018-02-09T09:32:58.558Z,73.96
2018-02-09T09:34:07.485Z,73.86
2018-02-09T09:35:16.306Z,73.3
2018-02-09T09:36:25.131Z,74.34
2018-02-09T09:37:33.953Z,74.53
2018-02-09T09:38:42.778Z,74.71
2018-02-09T09:39:51.702Z,74.9
2018-02-09T09:41:00.529Z,74.71
2018-02-09T09:42:09.351Z,75.95
2018-02-09T09:43:18.178Z,76.42
2018-02-09T09:44:27.001Z,75.95
2018-02-09T09:45:35.826Z,75
2018-02-09T09:46:44.650Z,74.62
2018-02-09T09:47:53.476Z,75.57
2018-02-09T09:49:02.570Z,76.42
2018-02-09T09:50:11.394Z,76.7
2018-02-09T09:51:20.369Z,76.98
2018-02-09T09:52:29.194Z,77.08
2018-02-09T09:53:38.020Z,77.69
2018-02-09T09:54:46.842Z,78.34
2018-02-09T09:55:55.669Z,77.5
2018-02-09T09:57:04.594Z,77.59
2018-02-09T09:58:13.419Z,77.78
2018-02-09T09:59:22.241Z,78.06
2018-02-09T10:00:31.341Z,78.16
2018-02-09T10:01:40.164Z,78.34
2018-02-09T10:02:49.088Z,77.87
2018-02-09T10:03:57.911Z,78.25
2018-02-09T10:05:06.733Z,77.97
2018-02-09T10:06:15.564Z,78.34
2018-02-09T10:07:24.433Z,77.69
2018-02-09T10:08:33.314Z,78.06
2018-02-09T10:09:42.139Z,78.06
2018-02-09T10:10:50.966Z,78.06
2018-02-09T10:11:59.793Z,78.63
2018-02-09T10:13:08.619Z,79
2018-02-09T10:14:17.495Z,78.91
2018-02-09T10:15:26.319Z,79.1
2018-02-09T10:16:35.150Z,79.48
2018-02-09T10:17:43.975Z,79
2018-02-09T10:18:52.800Z,79.48
2018-02-09T10:20:01.727Z,79.29
2018-02-09T10:21:10.829Z,79.48
2018-02-09T10:22:19.925Z,79.76
2018-02-09T10:23:28.754Z,79.76
2018-02-09T10:24:37.853Z,79.29
2018-02-09T10:25:46.783Z,79.29
2018-02-09T10:26:55.604Z,79
2018-02-09T10:28:04.429Z,79.48
2018-02-09T10:29:13.255Z,79.67
2018-02-09T10:30:22.081Z,79.38
2018-02-09T10:31:31.158Z,79.57
2018-02-09T10:32:39.983Z,79.38
2018-02-09T10:33:48.810Z,79.57
2018-02-09T10:34:57.637Z,79.99
2018-02-09T10:36:06.460Z,79.52
2018-02-09T10:37:15.438Z,79.99
2018-02-09T10:38:24.265Z,80.08
2018-02-09T10:39:33.094Z,79.43
2018-02-09T10:40:41.919Z,79.61
2018-02-09T10:41:50.747Z,79.52
2018-02-09T10:42:59.623Z,79.52
2018-02-09T10:44:08.448Z,79.8
2018-02-09T10:45:17.273Z,80.46
2018-02-09T10:46:26.101Z,81.13
2018-02-09T10:47:34.926Z,81.6
2018-02-09T10:48:43.853Z,81.03
2018-02-09T10:49:52.677Z,80.94
2018-02-09T10:51:01.505Z,80.27
2018-02-09T10:52:10.330Z,80.94
2018-02-09T10:53:19.158Z,80.84
2018-02-09T10:54:28.033Z,81.6
2018-02-09T10:55:36.859Z,80.84
2018-02-09T10:56:45.683Z,81.98
2018-02-09T10:57:54.508Z,81.51
2018-02-09T10:59:03.335Z,81.41
2018-02-09T11:00:12.312Z,81.88
2018-02-09T11:01:21.138Z,81.79
2018-02-09T11:02:29.965Z,81.7
2018-02-09T11:03:38.792Z,81.7
2018-02-09T11:04:47.617Z,81.51
2018-02-09T11:05:56.498Z,82.45
2018-02-09T11:07:05.319Z,81.98
2018-02-09T11:08:14.147Z,81.51
2018-02-09T11:09:23.251Z,82.54
2018-02-09T11:10:32.077Z,82.07
2018-02-09T11:11:40.904Z,82.02
2018-02-09T11:12:49.730Z,82.17
2018-02-09T11:13:58.557Z,82.87
2018-02-09T11:15:07.701Z,82.31
2018-02-09T11:16:16.525Z,81.51
2018-02-09T11:17:25.503Z,82.35
2018-02-09T11:18:34.331Z,82.4
2018-02-09T11:19:43.154Z,81.93
2018-02-09T11:20:51.982Z,82.12
2018-02-09T11:22:00.811Z,82.59
2018-02-09T11:23:09.943Z,82.87
2018-02-09T11:24:18.770Z,82.68
2018-02-09T11:25:27.597Z,83.06
2018-02-09T11:26:36.423Z,82.78
2018-02-09T11:27:45.252Z,82.59
2018-02-09T11:28:54.228Z,82.87
2018-02-09T11:30:03.055Z,82.59
2018-02-09T11:31:11.882Z,83.44
2018-02-09T11:32:20.707Z,83.53
2018-02-09T11:33:29.535Z,83.34
2018-02-09T11:34:38.461Z,83.34
2018-02-09T11:35:47.289Z,83.06
2018-02-09T11:36:56.116Z,83.06
2018-02-09T11:38:04.942Z,83.44
2018-02-09T11:39:13.792Z,83.91
2018-02-09T11:40:22.598Z,84.58
2018-02-09T11:41:31.427Z,84.86
2018-02-09T11:42:40.254Z,85.52
2018-02-09T11:43:49.083Z,85.61
2018-02-09T11:44:57.913Z,85.14
2018-02-09T11:46:06.895Z,84.77
2018-02-09T11:47:15.723Z,85.42
2018-02-09T11:48:24.548Z,84.95
2018-02-09T11:49:33.381Z,85.57
2018-02-09T11:50:42.207Z,85.24
2018-02-09T11:51:51.343Z,85.71
2018-02-09T11:53:00.182Z,85.28
2018-02-09T11:54:09.006Z,85.42
2018-02-09T11:55:17.837Z,85.57
2018-02-09T11:56:26.991Z,86.32
2018-02-09T11:57:36.402Z,86.04
2018-02-09T11:58:45.479Z,86.22
2018-02-09T11:59:55.410Z,86.13
2018-02-09T12:01:04.296Z,86.51
2018-02-09T12:02:13.184Z,86.51
2018-02-09T12:03:22.612Z,86.37
2018-02-09T12:04:32.023Z,86.89
2018-02-09T12:05:40.817Z,86.89
2018-02-09T12:06:49.648Z,86.79
2018-02-09T12:07:58.519Z,87.17
2018-02-09T12:09:07.500Z,87.27
2018-02-09T12:10:16.328Z,86.98
2018-02-09T12:11:25.157Z,88.31
2018-02-09T12:12:33.988Z,88.31
2018-02-09T12:13:42.818Z,88.4
2018-02-09T12:14:51.747Z,88.4
2018-02-09T12:16:00.575Z,88.31
2018-02-09T12:17:09.405Z,89.54
2018-02-09T12:18:18.233Z,89.06
2018-02-09T12:19:27.332Z,89.82
2018-02-09T12:20:36.363Z,89.63
2018-02-09T12:21:45.194Z,89.73
2018-02-09T12:22:54.017Z,89.63
2018-02-09T12:24:02.846Z,90.48
2018-02-09T12:25:11.674Z,90.2
2018-02-09T12:26:20.602Z,89.92
2018-02-09T12:27:29.435Z,90.3
2018-02-09T12:28:38.534Z,91.15
2018-02-09T12:29:47.361Z,90.86
2018-02-09T12:30:56.188Z,91.24
2018-02-09T12:32:05.018Z,90.48
2018-02-09T12:33:13.849Z,90.48
2018-02-09T12:34:22.677Z,90.96
2018-02-09T12:35:31.504Z,91.05
2018-02-09T12:36:40.332Z,91.15
2018-02-09T12:37:49.266Z,91.29
2018-02-09T12:38:58.095Z,91.76
2018-02-09T12:40:06.923Z,91
2018-02-09T12:41:15.750Z,92.05
2018-02-09T12:42:24.580Z,92.43
2018-02-09T12:43:33.409Z,91.86
2018-02-09T12:44:42.238Z,91.57
2018-02-09T12:45:51.068Z,92.43
2018-02-09T12:46:59.897Z,92.05
2018-02-09T12:48:08.731Z,92.43
2018-02-09T12:49:17.660Z,92.43
2018-02-09T12:50:26.489Z,92.33
2018-02-09T12:51:35.322Z,92.8
2018-02-09T12:52:44.147Z,92.14
2018-02-09T12:53:52.977Z,92.8
2018-02-09T12:55:01.908Z,93.18
2018-02-09T12:56:10.737Z,92.24
2018-02-09T12:57:19.565Z,92.52
2018-02-09T12:58:28.395Z,92.71
2018-02-09T12:59:37.228Z,92.8
2018-02-09T13:00:46.116Z,92.24
2018-02-09T13:01:54.951Z,92.61
2018-02-09T13:03:03.788Z,92.71
2018-02-09T13:04:12.622Z,92.71
2018-02-09T13:05:21.454Z,92.9
2018-02-09T13:06:30.609Z,93.08
2018-02-09T13:07:39.490Z,94.37
2018-02-09T13:08:48.323Z,93.56
2018-02-09T13:09:57.161Z,93.75
2018-02-09T13:11:05.995Z,93.56
2018-02-09T13:12:15.376Z,93.61
2018-02-09T13:13:24.416Z,93.23
2018-02-09T13:14:33.248Z,93.99
2018-02-09T13:15:42.186Z,93.32
2018-02-09T13:16:51.294Z,94.08
2018-02-09T13:18:00.209Z,94.08
2018-02-09T13:19:09.054Z,94.18
2018-02-09T13:20:17.929Z,94.08
2018-02-09T13:21:26.761Z,93.8
2018-02-09T13:22:35.876Z,94.18
2018-02-09T13:23:45.386Z,94.08
2018-02-09T13:24:54.220Z,94.18
2018-02-09T13:26:03.056Z,94.27
2018-02-09T13:27:11.895Z,94.27
2018-02-09T13:28:20.736Z,94.27
2018-02-09T13:29:29.747Z,94.84
2018-02-09T13:30:38.603Z,93.89
2018-02-09T13:31:47.440Z,94.84
2018-02-09T13:32:56.307Z,95.41
2018-02-09T13:34:05.176Z,94.84
2018-02-09T13:35:14.086Z,95.03
2018-02-09T13:36:22.941Z,95.12
2018-02-09T13:37:31.773Z,94.74
2018-02-09T13:38:40.605Z,95.12
2018-02-09T13:39:49.439Z,95.31
2018-02-09T13:40:58.546Z,95.22
2018-02-09T13:42:07.377Z,95.41
2018-02-09T13:43:16.211Z,95.79
2018-02-09T13:44:25.045Z,94.93
2018-02-09T13:45:33.878Z,95.31
2018-02-09T13:46:42.861Z,94.84
2018-02-09T13:47:51.691Z,95.31
2018-02-09T13:49:00.522Z,95.79
2018-02-09T13:50:09.352Z,95.22
2018-02-09T13:51:18.186Z,95.69
2018-02-09T13:52:27.064Z,95.6
2018-02-09T13:53:35.900Z,95.36
2018-02-09T13:54:44.728Z,95.93
2018-02-09T13:55:53.561Z,95.69
2018-02-09T13:57:02.664Z,95.98
2018-02-09T13:58:11.494Z,95.98
2018-02-09T13:59:20.321Z,95.88
2018-02-09T14:00:29.153Z,95.88
2018-02-09T14:01:37.984Z,95.5
2018-02-09T14:02:46.814Z,95.98
2018-02-09T14:03:55.793Z,95.5
2018-02-09T14:05:04.625Z,95.88
2018-02-09T14:06:13.460Z,95.69
2018-02-09T14:07:22.292Z,96.5
2018-02-09T14:08:31.121Z,95.55
2018-02-09T14:09:40.010Z,95.55
2018-02-09T14:10:48.782Z,96.31
2018-02-09T14:11:57.616Z,95.65
2018-02-09T14:13:06.444Z,95.74
2018-02-09T14:14:15.277Z,95.65
2018-02-09T14:15:24.110Z,96.31
2018-02-09T14:16:33.038Z,96.03
2018-02-09T14:17:41.874Z,95.74
2018-02-09T14:18:50.700Z,96.31
2018-02-09T14:19:59.531Z,96.22
2018-02-09T14:21:08.462Z,96.12
2018-02-09T14:22:17.342Z,96.31
2018-02-09T14:23:26.129Z,96.03
2018-02-09T14:24:34.967Z,96.07
2018-02-09T14:25:43.795Z,96.12
2018-02-09T14:26:52.842Z,95.93
2018-02-09T14:28:01.724Z,96.12
2018-02-09T14:29:10.554Z,96.22
2018-02-09T14:30:19.389Z,96.22
2018-02-09T14:31:28.220Z,96.12
2018-02-09T14:32:37.245Z,96.31
2018-02-09T14:33:46.083Z,96.12
2018-02-09T14:34:54.921Z,96.55
2018-02-09T14:36:03.869Z,96.26
2018-02-09T14:37:12.809Z,96.17
2018-02-09T14:38:21.692Z,96.17
2018-02-09T14:39:30.524Z,95.88
2018-02-09T14:40:39.360Z,95.88
2018-02-09T14:41:48.198Z,95.98
2018-02-09T14:42:57.313Z,95.98
2018-02-09T14:44:06.247Z,95.88
2018-02-09T14:45:15.083Z,95.6
2018-02-09T14:46:23.918Z,95.98
2018-02-09T14:47:33.025Z,95.6
2018-02-09T14:48:41.867Z,95.79
2018-02-09T14:49:50.705Z,95.88
2018-02-09T14:50:59.542Z,96.17
2018-02-09T14:52:08.652Z,95.98